createdAt,value
2022-11-16T00:00:18.370Z,0.00
2022-11-16T00:01:18.342Z,0.00
2022-11-16T00:02:18.380Z,0.00
2022-11-16T00:03:18.304Z,0.00
2022-11-16T00:04:18.292Z,0.00
2022-11-16T00:05:18.285Z,0.00
2022-11-16T00:06:18.273Z,0.00
2022-11-16T00:07:18.281Z,0.00
2022-11-16T00:08:18.245Z,0.00
2022-11-16T00:09:18.235Z,0.00
2022-11-16T00:10:18.223Z,0.00
2022-11-16T00:11:18.210Z,0.00
2022-11-16T00:12:18.201Z,0.00
2022-11-16T00:13:18.190Z,0.00
2022-11-16T00:14:18.175Z,0.00
2022-11-16T00:15:18.171Z,0.00
2022-11-16T00:16:18.190Z,0.00
2022-11-16T00:17:18.142Z,0.00
2022-11-16T00:18:18.131Z,0.00
2022-11-16T00:19:18.125Z,0.00
2022-11-16T00:20:18.108Z,0.00
2022-11-16T00:21:18.099Z,0.00
2022-11-16T00:22:18.089Z,0.00
2022-11-16T00:23:18.074Z,0.00
2022-11-16T00:24:18.070Z,0.00
2022-11-16T00:25:18.053Z,0.00
2022-11-16T00:26:18.047Z,0.00
2022-11-16T00:27:18.028Z,0.00
2022-11-16T00:28:18.022Z,0.00
2022-11-16T00:29:18.005Z,0.00
2022-11-16T00:30:17.997Z,0.00
2022-11-16T00:31:17.982Z,0.00
2022-11-16T00:32:18.001Z,0.00
2022-11-16T00:33:17.960Z,0.00
2022-11-16T00:34:17.976Z,0.00
2022-11-16T00:35:17.943Z,0.00
2022-11-16T00:36:17.925Z,0.00
2022-11-16T00:37:17.918Z,0.00
2022-11-16T00:38:17.904Z,0.00
2022-11-16T00:39:17.898Z,0.00
2022-11-16T00:40:17.880Z,0.00
2022-11-16T00:41:17.870Z,0.00
2022-11-16T00:42:17.858Z,0.00
2022-11-16T00:43:17.851Z,0.00
2022-11-16T00:44:17.833Z,0.00
2022-11-16T00:45:17.825Z,0.00
2022-11-16T00:46:17.814Z,0.00
2022-11-16T00:47:17.809Z,0.00
2022-11-16T00:48:17.809Z,0.00
2022-11-16T00:49:17.780Z,0.00
2022-11-16T00:50:17.763Z,0.00
2022-11-16T00:51:17.752Z,0.00
2022-11-16T00:52:17.740Z,0.00
2022-11-16T00:53:17.733Z,0.00
2022-11-16T00:54:17.719Z,0.00
2022-11-16T00:55:17.708Z,0.00
2022-11-16T00:56:17.695Z,0.00
2022-11-16T00:57:17.684Z,0.00
2022-11-16T00:58:17.674Z,0.00
2022-11-16T00:59:17.660Z,0.00
2022-11-16T01:00:17.648Z,0.00
2022-11-16T01:01:17.697Z,0.00
2022-11-16T01:02:17.629Z,0.00
2022-11-16T01:03:17.614Z,0.00
2022-11-16T01:04:17.631Z,0.00
2022-11-16T01:05:17.593Z,0.00
2022-11-16T01:06:17.580Z,0.00
2022-11-16T01:07:17.650Z,0.00
2022-11-16T01:08:17.563Z,0.00
2022-11-16T01:09:17.553Z,0.00
2022-11-16T01:10:17.537Z,0.00
2022-11-16T01:11:17.526Z,0.00
2022-11-16T01:12:17.513Z,0.00
2022-11-16T01:13:17.504Z,0.00
2022-11-16T01:14:17.498Z,0.00
2022-11-16T01:15:17.483Z,0.00
2022-11-16T01:16:17.469Z,0.00
2022-11-16T01:17:17.458Z,0.00
2022-11-16T01:18:17.453Z,0.00
2022-11-16T01:19:17.435Z,0.00
2022-11-16T01:20:17.452Z,0.00
2022-11-16T01:21:17.418Z,0.00
2022-11-16T01:22:17.399Z,0.00
2022-11-16T01:23:17.392Z,0.00
2022-11-16T01:24:17.394Z,0.00
2022-11-16T01:25:17.377Z,0.00
2022-11-16T01:26:17.354Z,0.00
2022-11-16T01:27:17.341Z,0.00
2022-11-16T01:28:17.333Z,0.00
2022-11-16T01:29:17.320Z,0.00
2022-11-16T01:30:17.314Z,0.00
2022-11-16T01:31:17.307Z,0.00
2022-11-16T01:32:17.290Z,0.00
2022-11-16T01:33:17.272Z,0.00
2022-11-16T01:34:17.262Z,0.00
2022-11-16T01:35:17.252Z,0.00
2022-11-16T01:36:17.279Z,0.00
2022-11-16T01:37:17.229Z,0.00
2022-11-16T01:38:17.224Z,0.00
2022-11-16T01:39:17.207Z,0.00
2022-11-16T01:40:17.195Z,0.00
2022-11-16T01:41:17.187Z,0.00
2022-11-16T01:42:17.173Z,0.00
2022-11-16T01:43:17.163Z,0.00
2022-11-16T01:44:17.152Z,0.00
2022-11-16T01:45:17.140Z,0.00
2022-11-16T01:46:17.131Z,0.00
2022-11-16T01:47:17.122Z,0.00
2022-11-16T01:48:17.155Z,0.00
2022-11-16T01:49:17.099Z,0.00
2022-11-16T01:50:17.091Z,0.00
2022-11-16T01:51:17.074Z,0.00
2022-11-16T01:52:17.092Z,0.00
2022-11-16T01:53:17.056Z,0.00
2022-11-16T01:54:17.045Z,0.00
2022-11-16T01:55:17.035Z,0.00
2022-11-16T01:56:17.024Z,0.00
2022-11-16T01:57:17.016Z,0.00
2022-11-16T01:58:16.995Z,0.00
2022-11-16T01:59:16.985Z,0.00
2022-11-16T02:00:16.974Z,0.00
2022-11-16T02:01:17.056Z,0.00
2022-11-16T02:02:16.960Z,0.00
2022-11-16T02:03:16.943Z,0.00
2022-11-16T02:04:16.931Z,0.00
2022-11-16T02:05:16.920Z,0.00
2022-11-16T02:06:16.908Z,0.00
2022-11-16T02:07:16.982Z,0.00
2022-11-16T02:08:16.914Z,0.00
2022-11-16T02:09:16.875Z,0.00
2022-11-16T02:10:16.865Z,0.00
2022-11-16T02:11:16.864Z,0.00
2022-11-16T02:12:16.843Z,0.00
2022-11-16T02:13:16.837Z,0.00
2022-11-16T02:14:16.820Z,0.00
2022-11-16T02:15:16.818Z,0.00
2022-11-16T02:16:16.799Z,0.00
2022-11-16T02:17:16.792Z,0.00
2022-11-16T02:18:16.777Z,0.00
2022-11-16T02:19:16.766Z,0.00
2022-11-16T02:20:16.776Z,0.00
2022-11-16T02:21:16.743Z,0.00
2022-11-16T02:22:16.737Z,0.00
2022-11-16T02:23:16.734Z,0.00
2022-11-16T02:24:16.734Z,0.00
2022-11-16T02:25:16.699Z,0.00
2022-11-16T02:26:16.687Z,0.00
2022-11-16T02:27:16.677Z,0.00
2022-11-16T02:28:16.665Z,0.00
2022-11-16T02:29:16.655Z,0.00
2022-11-16T02:30:16.648Z,0.00
2022-11-16T02:31:16.633Z,0.00
2022-11-16T02:32:16.620Z,0.00
2022-11-16T02:33:16.616Z,0.00
2022-11-16T02:34:16.605Z,0.00
2022-11-16T02:35:16.586Z,0.00
2022-11-16T02:36:16.589Z,0.00
2022-11-16T02:37:16.568Z,0.00
2022-11-16T02:38:16.558Z,0.00
2022-11-16T02:39:16.546Z,0.00
2022-11-16T02:40:16.555Z,0.00
2022-11-16T02:41:16.524Z,0.00
2022-11-16T02:42:16.514Z,0.00
2022-11-16T02:43:16.504Z,0.00
2022-11-16T02:44:16.489Z,0.00
2022-11-16T02:45:16.482Z,0.00
2022-11-16T02:46:16.468Z,0.00
2022-11-16T02:47:16.465Z,0.00
2022-11-16T02:48:16.446Z,0.00
2022-11-16T02:49:16.435Z,0.00
2022-11-16T02:50:16.427Z,0.00
2022-11-16T02:51:16.417Z,0.00
2022-11-16T02:52:16.403Z,0.00
2022-11-16T02:53:16.391Z,0.00
2022-11-16T02:54:16.380Z,0.00
2022-11-16T02:55:16.378Z,0.00
2022-11-16T02:56:16.380Z,0.00
2022-11-16T02:57:16.348Z,0.00
2022-11-16T02:58:16.334Z,0.00
2022-11-16T02:59:17.743Z,0.00
2022-11-16T03:00:16.314Z,0.00
2022-11-16T03:01:16.355Z,0.00
2022-11-16T03:02:16.291Z,0.00
2022-11-16T03:03:16.282Z,0.00
2022-11-16T03:04:16.272Z,0.00
2022-11-16T03:05:16.262Z,0.00
2022-11-16T03:06:16.250Z,0.00
2022-11-16T03:07:16.316Z,0.00
2022-11-16T03:08:16.226Z,0.00
2022-11-16T03:09:16.218Z,0.00
2022-11-16T03:10:16.201Z,0.00
2022-11-16T03:11:16.194Z,0.00
2022-11-16T03:12:16.206Z,0.00
2022-11-16T03:13:16.170Z,0.00
2022-11-16T03:14:16.158Z,0.00
2022-11-16T03:15:16.151Z,0.00
2022-11-16T03:16:16.139Z,0.00
2022-11-16T03:17:16.127Z,0.00
2022-11-16T03:18:16.115Z,0.00
2022-11-16T03:19:16.102Z,0.00
2022-11-16T03:20:16.101Z,0.00
2022-11-16T03:21:16.082Z,0.00
2022-11-16T03:22:16.073Z,0.00
2022-11-16T03:23:16.059Z,0.00
2022-11-16T03:24:16.059Z,0.00
2022-11-16T03:25:16.040Z,0.00
2022-11-16T03:26:16.028Z,0.00
2022-11-16T03:27:16.016Z,0.00
2022-11-16T03:28:16.029Z,0.00
2022-11-16T03:29:15.998Z,0.00
2022-11-16T03:30:17.351Z,0.00
2022-11-16T03:31:15.974Z,0.00
2022-11-16T03:32:15.960Z,0.00
2022-11-16T03:33:15.952Z,0.00
2022-11-16T03:34:15.938Z,0.00
2022-11-16T03:35:15.929Z,0.00
2022-11-16T03:36:15.916Z,0.00
2022-11-16T03:37:15.906Z,0.00
2022-11-16T03:38:15.895Z,0.00
2022-11-16T03:39:15.889Z,0.00
2022-11-16T03:40:15.879Z,0.00
2022-11-16T03:41:15.864Z,0.00
2022-11-16T03:42:15.852Z,0.00
2022-11-16T03:43:15.838Z,0.00
2022-11-16T03:44:15.860Z,0.00
2022-11-16T03:45:15.818Z,0.00
2022-11-16T03:46:15.806Z,0.00
2022-11-16T03:47:15.800Z,0.00
2022-11-16T03:48:15.791Z,0.00
2022-11-16T03:49:15.772Z,0.00
2022-11-16T03:50:15.769Z,0.00
2022-11-16T03:51:15.751Z,0.00
2022-11-16T03:52:15.743Z,0.00
2022-11-16T03:53:15.738Z,0.00
2022-11-16T03:54:15.718Z,0.00
2022-11-16T03:55:15.712Z,0.00
2022-11-16T03:56:15.695Z,0.00
2022-11-16T03:57:15.717Z,0.00
2022-11-16T03:58:15.675Z,0.00
2022-11-16T03:59:15.664Z,0.00
2022-11-16T04:00:15.679Z,0.00
2022-11-16T04:01:15.752Z,0.00
2022-11-16T04:02:15.636Z,0.00
2022-11-16T04:03:15.628Z,0.00
2022-11-16T04:04:15.611Z,0.00
2022-11-16T04:05:15.601Z,0.00
2022-11-16T04:06:15.589Z,0.00
2022-11-16T04:07:15.687Z,0.00
2022-11-16T04:08:15.565Z,0.00
2022-11-16T04:09:15.553Z,0.00
2022-11-16T04:10:15.551Z,0.00
2022-11-16T04:11:15.532Z,0.00
2022-11-16T04:12:15.518Z,0.00
2022-11-16T04:13:15.511Z,0.00
2022-11-16T04:14:15.499Z,0.00
2022-11-16T04:15:15.489Z,0.00
2022-11-16T04:16:15.499Z,0.00
2022-11-16T04:17:15.468Z,0.00
2022-11-16T04:18:15.455Z,0.00
2022-11-16T04:19:15.444Z,0.00
2022-11-16T04:20:15.437Z,0.00
2022-11-16T04:21:15.423Z,0.00
2022-11-16T04:22:15.413Z,0.00
2022-11-16T04:23:15.402Z,0.00
2022-11-16T04:24:15.389Z,0.00
2022-11-16T04:25:15.379Z,0.00
2022-11-16T04:26:15.371Z,0.00
2022-11-16T04:27:15.361Z,0.00
2022-11-16T04:28:15.352Z,0.00
2022-11-16T04:29:15.340Z,0.00
2022-11-16T04:30:15.329Z,0.00
2022-11-16T04:31:15.312Z,0.00
2022-11-16T04:32:15.325Z,0.00
2022-11-16T04:33:15.290Z,0.00
2022-11-16T04:34:15.285Z,0.00
2022-11-16T04:35:15.267Z,0.00
2022-11-16T04:36:19.415Z,0.00
2022-11-16T04:37:15.293Z,0.00
2022-11-16T04:38:15.236Z,0.00
2022-11-16T04:39:15.230Z,0.00
2022-11-16T04:40:15.213Z,0.00
2022-11-16T04:41:15.252Z,0.00
2022-11-16T04:42:15.197Z,0.00
2022-11-16T04:43:15.182Z,0.00
2022-11-16T04:44:15.169Z,0.00
2022-11-16T04:45:15.173Z,0.00
2022-11-16T04:46:15.149Z,0.00
2022-11-16T04:47:15.142Z,0.00
2022-11-16T04:48:15.151Z,0.00
2022-11-16T04:49:15.118Z,0.00
2022-11-16T04:50:15.133Z,0.00
2022-11-16T04:51:15.115Z,0.00
2022-11-16T04:52:15.084Z,0.00
2022-11-16T04:53:15.106Z,0.00
2022-11-16T04:54:15.064Z,0.00
2022-11-16T04:55:15.059Z,0.00
2022-11-16T04:56:15.052Z,0.00
2022-11-16T04:57:15.089Z,0.00
2022-11-16T04:58:15.036Z,0.00
2022-11-16T04:59:15.008Z,0.00
2022-11-16T05:00:15.022Z,0.00
2022-11-16T05:01:15.044Z,0.00
2022-11-16T05:02:14.975Z,0.00
2022-11-16T05:03:14.960Z,0.00
2022-11-16T05:04:14.980Z,0.00
2022-11-16T05:05:14.943Z,0.00
2022-11-16T05:06:14.935Z,0.00
2022-11-16T05:07:15.002Z,0.00
2022-11-16T05:08:14.916Z,0.00
2022-11-16T05:09:14.895Z,0.00
2022-11-16T05:10:14.889Z,0.00
2022-11-16T05:11:14.873Z,0.00
2022-11-16T05:12:14.893Z,0.00
2022-11-16T05:13:14.852Z,0.00
2022-11-16T05:14:14.839Z,0.00
2022-11-16T05:15:14.830Z,0.00
2022-11-16T05:16:14.816Z,0.00
2022-11-16T05:17:14.811Z,0.00
2022-11-16T05:18:14.798Z,0.00
2022-11-16T05:19:14.786Z,0.00
2022-11-16T05:20:14.799Z,0.00
2022-11-16T05:21:14.768Z,0.00
2022-11-16T05:22:14.751Z,0.00
2022-11-16T05:23:14.742Z,0.00
2022-11-16T05:24:16.733Z,0.00
2022-11-16T05:25:14.726Z,0.00
2022-11-16T05:26:14.711Z,0.00
2022-11-16T05:27:14.701Z,0.00
2022-11-16T05:28:14.694Z,0.00
2022-11-16T05:29:14.675Z,0.00
2022-11-16T05:30:14.665Z,0.00
2022-11-16T05:31:14.655Z,0.00
2022-11-16T05:32:14.648Z,0.00
2022-11-16T05:33:14.633Z,0.00
2022-11-16T05:34:14.623Z,0.00
2022-11-16T05:35:14.625Z,0.00
2022-11-16T05:36:14.629Z,0.00
2022-11-16T05:37:14.588Z,0.00
2022-11-16T05:38:14.577Z,0.00
2022-11-16T05:39:14.568Z,0.00
2022-11-16T05:40:14.563Z,0.00
2022-11-16T05:41:14.550Z,0.00
2022-11-16T05:42:14.566Z,0.00
2022-11-16T05:43:14.524Z,0.00
2022-11-16T05:44:14.512Z,0.00
2022-11-16T05:45:19.813Z,0.00
2022-11-16T05:46:14.492Z,0.00
2022-11-16T05:47:14.488Z,0.00
2022-11-16T05:48:14.468Z,0.00
2022-11-16T05:49:14.455Z,0.00
2022-11-16T05:50:14.445Z,0.00
2022-11-16T05:51:14.434Z,0.00
2022-11-16T05:52:14.454Z,0.00
2022-11-16T05:53:14.418Z,0.00
2022-11-16T05:54:14.404Z,0.00
2022-11-16T05:55:14.390Z,0.00
2022-11-16T05:56:14.518Z,0.00
2022-11-16T05:57:14.370Z,0.00
2022-11-16T05:58:14.357Z,0.00
2022-11-16T05:59:16.622Z,0.00
2022-11-16T06:00:14.341Z,0.00
2022-11-16T06:01:14.325Z,0.00
2022-11-16T06:02:14.314Z,0.00
2022-11-16T06:03:14.343Z,0.00
2022-11-16T06:04:14.298Z,0.00
2022-11-16T06:05:14.305Z,0.00
2022-11-16T06:06:14.272Z,0.00
2022-11-16T06:07:14.325Z,0.00
2022-11-16T06:08:14.250Z,0.00
2022-11-16T06:09:14.240Z,0.00
2022-11-16T06:10:14.226Z,4.00
2022-11-16T06:11:14.214Z,4.00
2022-11-16T06:12:16.204Z,4.00
2022-11-16T06:13:14.196Z,4.00
2022-11-16T06:14:14.182Z,4.00
2022-11-16T06:15:14.171Z,4.00
2022-11-16T06:16:14.414Z,0.00
2022-11-16T06:17:14.152Z,0.00
2022-11-16T06:18:14.136Z,4.00
2022-11-16T06:19:14.132Z,4.00
2022-11-16T06:20:14.117Z,4.00
2022-11-16T06:21:14.107Z,4.00
2022-11-16T06:22:16.091Z,4.00
2022-11-16T06:23:14.086Z,4.00
2022-11-16T06:24:14.073Z,4.00
2022-11-16T06:25:16.060Z,4.00
2022-11-16T06:26:16.047Z,8.00
2022-11-16T06:27:14.043Z,8.00
2022-11-16T06:28:14.026Z,8.00
2022-11-16T06:29:14.019Z,8.00
2022-11-16T06:30:14.005Z,8.00
2022-11-16T06:31:13.995Z,8.00
2022-11-16T06:32:14.667Z,12.00
2022-11-16T06:33:13.973Z,8.00
2022-11-16T06:34:15.960Z,12.00
2022-11-16T06:35:13.951Z,12.00
2022-11-16T06:36:13.941Z,16.00
2022-11-16T06:37:13.928Z,16.00
2022-11-16T06:38:13.922Z,12.00
2022-11-16T06:39:13.921Z,16.00
2022-11-16T06:40:15.895Z,16.00
2022-11-16T06:41:15.909Z,16.00
2022-11-16T06:42:13.872Z,20.00
2022-11-16T06:43:13.864Z,16.00
2022-11-16T06:44:13.850Z,20.00
2022-11-16T06:45:13.846Z,20.00
2022-11-16T06:46:13.835Z,24.00
2022-11-16T06:47:15.816Z,20.00
2022-11-16T06:48:16.155Z,20.00
2022-11-16T06:49:13.800Z,24.00
2022-11-16T06:50:15.783Z,20.00
2022-11-16T06:51:13.777Z,24.00
2022-11-16T06:52:13.760Z,24.00
2022-11-16T06:53:13.753Z,28.00
2022-11-16T06:54:13.738Z,28.00
2022-11-16T06:55:13.726Z,28.00
2022-11-16T06:56:15.714Z,32.00
2022-11-16T06:57:13.706Z,28.00
2022-11-16T06:58:13.696Z,32.00
2022-11-16T06:59:13.686Z,32.00
2022-11-16T07:00:15.669Z,32.00
2022-11-16T07:01:15.725Z,32.00
2022-11-16T07:02:15.732Z,32.00
2022-11-16T07:03:13.637Z,36.00
2022-11-16T07:04:15.648Z,36.00
2022-11-16T07:05:13.615Z,36.00
2022-11-16T07:06:13.605Z,40.00
2022-11-16T07:07:13.673Z,40.00
2022-11-16T07:08:13.589Z,44.00
2022-11-16T07:09:15.568Z,40.00
2022-11-16T07:10:13.558Z,44.00
2022-11-16T07:11:13.551Z,40.00
2022-11-16T07:12:13.642Z,44.00
2022-11-16T07:13:13.524Z,44.00
2022-11-16T07:14:15.514Z,48.00
2022-11-16T07:15:13.505Z,48.00
2022-11-16T07:16:13.492Z,52.00
2022-11-16T07:17:13.479Z,52.00
2022-11-16T07:18:13.470Z,52.00
2022-11-16T07:19:15.458Z,56.00
2022-11-16T07:20:13.730Z,60.00
2022-11-16T07:21:13.438Z,64.00
2022-11-16T07:22:13.425Z,64.00
2022-11-16T07:23:14.325Z,68.00
2022-11-16T07:24:13.402Z,64.00
2022-11-16T07:25:13.391Z,68.00
2022-11-16T07:26:13.578Z,72.00
2022-11-16T07:27:13.369Z,72.00
2022-11-16T07:28:13.361Z,72.00
2022-11-16T07:29:15.352Z,80.00
2022-11-16T07:30:13.339Z,80.00
2022-11-16T07:31:13.325Z,84.00
2022-11-16T07:32:13.315Z,80.00
2022-11-16T07:33:13.300Z,84.00
2022-11-16T07:34:13.293Z,88.00
2022-11-16T07:35:13.275Z,88.00
2022-11-16T07:36:13.382Z,96.00
2022-11-16T07:37:13.257Z,100.00
2022-11-16T07:38:17.843Z,104.00
2022-11-16T07:39:15.231Z,116.00
2022-11-16T07:40:13.220Z,116.00
2022-11-16T07:41:13.209Z,124.00
2022-11-16T07:42:15.196Z,124.00
2022-11-16T07:43:13.186Z,128.00
2022-11-16T07:44:13.175Z,128.00
2022-11-16T07:45:13.166Z,120.00
2022-11-16T07:47:13.145Z,124.00
2022-11-16T07:48:15.127Z,124.00
2022-11-16T07:49:13.119Z,124.00
2022-11-16T07:50:13.107Z,120.00
2022-11-16T07:51:13.100Z,116.00
2022-11-16T07:52:13.290Z,116.00
2022-11-16T07:53:13.073Z,120.00
2022-11-16T07:54:13.066Z,128.00
2022-11-16T07:55:13.054Z,132.00
2022-11-16T07:56:13.042Z,148.00
2022-11-16T07:57:15.034Z,136.00
2022-11-16T07:58:13.017Z,124.00
2022-11-16T07:59:13.008Z,120.00
2022-11-16T08:00:12.993Z,116.00
2022-11-16T08:01:12.981Z,112.00
2022-11-16T08:02:15.004Z,116.00
2022-11-16T08:03:12.966Z,112.00
2022-11-16T08:04:12.959Z,132.00
2022-11-16T08:05:12.946Z,132.00
2022-11-16T08:06:12.928Z,128.00
2022-11-16T08:07:12.961Z,136.00
2022-11-16T08:08:13.023Z,128.00
2022-11-16T08:09:12.898Z,128.00
2022-11-16T08:10:12.941Z,136.00
2022-11-16T08:11:12.868Z,152.00
2022-11-16T08:12:12.862Z,136.00
2022-11-16T08:13:14.851Z,128.00
2022-11-16T08:14:12.841Z,120.00
2022-11-16T08:15:12.822Z,112.00
2022-11-16T08:16:12.824Z,120.00
2022-11-16T08:17:14.798Z,124.00
2022-11-16T08:18:14.791Z,132.00
2022-11-16T08:19:12.780Z,148.00
2022-11-16T08:20:12.765Z,148.00
2022-11-16T08:21:12.764Z,152.00
2022-11-16T08:22:12.746Z,152.00
2022-11-16T08:23:14.730Z,144.00
2022-11-16T08:24:14.836Z,144.00
2022-11-16T08:25:12.711Z,136.00
2022-11-16T08:26:12.700Z,132.00
2022-11-16T08:27:12.688Z,128.00
2022-11-16T08:28:14.673Z,136.00
2022-11-16T08:29:14.656Z,136.00
2022-11-16T08:30:12.649Z,156.00
2022-11-16T08:31:12.638Z,172.00
2022-11-16T08:32:12.628Z,192.00
2022-11-16T08:33:12.613Z,188.00
2022-11-16T08:34:12.603Z,196.00
2022-11-16T08:35:12.596Z,188.00
2022-11-16T08:36:14.198Z,204.00
2022-11-16T08:37:12.591Z,192.00
2022-11-16T08:38:12.553Z,200.00
2022-11-16T08:39:12.541Z,200.00
2022-11-16T08:40:12.645Z,188.00
2022-11-16T08:41:12.518Z,188.00
2022-11-16T08:42:12.510Z,176.00
2022-11-16T08:43:12.501Z,172.00
2022-11-16T08:44:12.487Z,176.00
2022-11-16T08:45:12.486Z,172.00
2022-11-16T08:46:12.466Z,184.00
2022-11-16T08:47:12.446Z,184.00
2022-11-16T08:48:12.444Z,180.00
2022-11-16T08:49:12.424Z,180.00
2022-11-16T08:50:12.411Z,188.00
2022-11-16T08:51:20.838Z,208.00
2022-11-16T08:52:12.390Z,244.00
2022-11-16T08:53:12.382Z,196.00
2022-11-16T08:54:12.384Z,200.00
2022-11-16T08:55:12.371Z,220.00
2022-11-16T08:56:12.475Z,212.00
2022-11-16T08:57:12.339Z,228.00
2022-11-16T08:58:12.327Z,240.00
2022-11-16T08:59:12.306Z,232.00
2022-11-16T09:00:12.303Z,224.00
2022-11-16T09:01:12.504Z,220.00
2022-11-16T09:02:12.307Z,216.00
2022-11-16T09:03:12.269Z,208.00
2022-11-16T09:04:12.256Z,240.00
2022-11-16T09:05:12.237Z,264.00
2022-11-16T09:06:12.228Z,244.00
2022-11-16T09:07:12.302Z,260.00
2022-11-16T09:08:12.213Z,268.00
2022-11-16T09:09:12.188Z,240.00
2022-11-16T09:10:12.182Z,248.00
2022-11-16T09:11:12.174Z,272.00
2022-11-16T09:12:12.181Z,268.00
2022-11-16T09:13:12.148Z,296.00
2022-11-16T09:14:12.131Z,288.00
2022-11-16T09:15:12.121Z,280.00
2022-11-16T09:16:12.112Z,292.00
2022-11-16T09:17:12.103Z,292.00
2022-11-16T09:18:12.084Z,284.00
2022-11-16T09:19:12.075Z,312.00
2022-11-16T09:20:12.066Z,292.00
2022-11-16T09:21:12.056Z,292.00
2022-11-16T09:22:12.043Z,292.00
2022-11-16T09:23:12.036Z,308.00
2022-11-16T09:24:12.017Z,328.00
2022-11-16T09:25:12.009Z,324.00
2022-11-16T09:26:11.996Z,308.00
2022-11-16T09:27:11.983Z,376.00
2022-11-16T09:28:12.089Z,308.00
2022-11-16T09:29:11.961Z,308.00
2022-11-16T09:30:11.950Z,336.00
2022-11-16T09:31:11.937Z,320.00
2022-11-16T09:32:11.932Z,356.00
2022-11-16T09:33:11.921Z,380.00
2022-11-16T09:34:11.905Z,408.00
2022-11-16T09:35:11.890Z,396.00
2022-11-16T09:36:11.877Z,368.00
2022-11-16T09:37:11.865Z,364.00
2022-11-16T09:38:16.023Z,384.00
2022-11-16T09:39:30.017Z,384.00
2022-11-16T09:40:11.834Z,348.00
2022-11-16T09:41:11.817Z,336.00
2022-11-16T09:42:11.812Z,340.00
2022-11-16T09:43:11.796Z,384.00
2022-11-16T09:44:11.903Z,444.00
2022-11-16T09:45:11.769Z,424.00
2022-11-16T09:46:11.766Z,448.00
2022-11-16T09:47:11.748Z,404.00
2022-11-16T09:48:11.738Z,380.00
2022-11-16T09:49:17.260Z,360.00
2022-11-16T09:50:11.719Z,364.00
2022-11-16T09:51:11.705Z,352.00
2022-11-16T09:52:11.688Z,368.00
2022-11-16T09:53:11.677Z,396.00
2022-11-16T09:54:11.664Z,400.00
2022-11-16T09:55:15.951Z,360.00
2022-11-16T09:56:11.642Z,304.00
2022-11-16T09:57:12.746Z,316.00
2022-11-16T09:58:11.621Z,324.00
2022-11-16T09:59:17.784Z,284.00
2022-11-16T10:00:11.714Z,284.00
2022-11-16T10:01:11.693Z,324.00
2022-11-16T10:02:11.572Z,304.00
2022-11-16T10:03:11.662Z,336.00
2022-11-16T10:04:11.550Z,328.00
2022-11-16T10:05:11.539Z,356.00
2022-11-16T10:06:11.525Z,328.00
2022-11-16T10:07:11.592Z,312.00
2022-11-16T10:08:11.502Z,312.00
2022-11-16T10:09:11.493Z,316.00
2022-11-16T10:10:12.087Z,316.00
2022-11-16T10:11:11.471Z,316.00
2022-11-16T10:12:11.455Z,308.00
2022-11-16T10:13:11.446Z,324.00
2022-11-16T10:14:11.436Z,300.00
2022-11-16T10:15:11.423Z,312.00
2022-11-16T10:16:11.532Z,324.00
2022-11-16T10:17:11.405Z,336.00
2022-11-16T10:18:11.388Z,324.00
2022-11-16T10:19:11.377Z,308.00
2022-11-16T10:20:11.375Z,312.00
2022-11-16T10:21:11.355Z,336.00
2022-11-16T10:22:11.340Z,344.00
2022-11-16T10:23:11.328Z,332.00
2022-11-16T10:24:11.320Z,352.00
2022-11-16T10:25:11.311Z,316.00
2022-11-16T10:26:11.300Z,304.00
2022-11-16T10:27:11.292Z,328.00
2022-11-16T10:28:11.274Z,304.00
2022-11-16T10:29:11.260Z,308.00
2022-11-16T10:30:11.260Z,328.00
2022-11-16T10:31:11.239Z,324.00
2022-11-16T10:32:11.246Z,328.00
2022-11-16T10:33:11.580Z,368.00
2022-11-16T10:34:11.204Z,376.00
2022-11-16T10:35:11.189Z,412.00
2022-11-16T10:36:11.185Z,392.00
2022-11-16T10:37:11.166Z,412.00
2022-11-16T10:38:11.152Z,420.00
2022-11-16T10:39:11.163Z,432.00
2022-11-16T10:40:11.131Z,544.00
2022-11-16T10:41:11.120Z,440.00
2022-11-16T10:42:11.111Z,412.00
2022-11-16T10:43:11.097Z,412.00
2022-11-16T10:44:11.090Z,436.00
2022-11-16T10:45:11.078Z,464.00
2022-11-16T10:46:11.063Z,532.00
2022-11-16T10:47:11.050Z,500.00
2022-11-16T10:48:11.157Z,556.00
2022-11-16T10:49:11.027Z,576.00
2022-11-16T10:50:11.015Z,608.00
2022-11-16T10:51:11.002Z,596.00
2022-11-16T10:52:10.994Z,556.00
2022-11-16T10:53:10.979Z,580.00
2022-11-16T10:54:10.968Z,544.00
2022-11-16T10:55:10.959Z,468.00
2022-11-16T10:56:10.962Z,428.00
2022-11-16T10:57:10.937Z,404.00
2022-11-16T10:58:10.928Z,412.00
2022-11-16T10:59:10.910Z,376.00
2022-11-16T11:00:12.792Z,348.00
2022-11-16T11:01:10.968Z,320.00
2022-11-16T11:02:10.877Z,304.00
2022-11-16T11:03:10.872Z,264.00
2022-11-16T11:04:10.971Z,288.00
2022-11-16T11:05:10.848Z,336.00
2022-11-16T11:06:10.839Z,312.00
2022-11-16T11:07:10.927Z,328.00
2022-11-16T11:08:10.809Z,368.00
2022-11-16T11:09:10.802Z,396.00
2022-11-16T11:10:10.787Z,448.00
2022-11-16T11:11:10.774Z,448.00
2022-11-16T11:12:10.762Z,456.00
2022-11-16T11:13:10.769Z,412.00
2022-11-16T11:14:10.739Z,400.00
2022-11-16T11:15:10.743Z,312.00
2022-11-16T11:16:10.721Z,300.00
2022-11-16T11:17:10.704Z,232.00
2022-11-16T11:18:10.695Z,196.00
2022-11-16T11:19:10.682Z,188.00
2022-11-16T11:20:10.801Z,184.00
2022-11-16T11:21:10.658Z,200.00
2022-11-16T11:22:10.647Z,224.00
2022-11-16T11:23:10.636Z,292.00
2022-11-16T11:24:42.369Z,300.00
2022-11-16T11:25:10.612Z,276.00
2022-11-16T11:26:10.610Z,252.00
2022-11-16T11:27:10.590Z,280.00
2022-11-16T11:28:10.579Z,276.00
2022-11-16T11:29:10.569Z,232.00
2022-11-16T11:30:10.559Z,212.00
2022-11-16T11:31:10.545Z,216.00
2022-11-16T11:32:10.536Z,216.00
2022-11-16T11:33:10.520Z,232.00
2022-11-16T11:34:10.506Z,244.00
2022-11-16T11:35:10.500Z,240.00
2022-11-16T11:36:10.525Z,232.00
2022-11-16T11:37:10.474Z,224.00
2022-11-16T11:38:10.470Z,276.00
2022-11-16T11:39:10.527Z,268.00
2022-11-16T11:40:10.442Z,272.00
2022-11-16T11:41:10.430Z,268.00
2022-11-16T11:42:10.431Z,272.00
2022-11-16T11:43:13.714Z,252.00
2022-11-16T11:44:10.395Z,252.00
2022-11-16T11:45:10.394Z,264.00
2022-11-16T11:46:10.371Z,264.00
2022-11-16T11:48:10.347Z,232.00
2022-11-16T11:49:10.337Z,220.00
2022-11-16T11:50:10.324Z,204.00
2022-11-16T11:51:10.323Z,208.00
2022-11-16T11:52:10.419Z,220.00
2022-11-16T11:53:10.299Z,220.00
2022-11-16T11:54:10.278Z,216.00
2022-11-16T11:55:10.267Z,216.00
2022-11-16T11:56:10.253Z,204.00
2022-11-16T11:57:10.243Z,208.00
2022-11-16T11:58:10.231Z,212.00
2022-11-16T11:59:10.222Z,216.00
2022-11-16T12:00:10.211Z,196.00
2022-11-16T12:01:10.197Z,192.00
2022-11-16T12:02:10.189Z,184.00
2022-11-16T12:03:10.220Z,196.00
2022-11-16T12:04:10.170Z,188.00
2022-11-16T12:05:10.152Z,184.00
2022-11-16T12:06:10.148Z,180.00
2022-11-16T12:07:10.171Z,192.00
2022-11-16T12:08:10.203Z,192.00
2022-11-16T12:09:10.105Z,204.00
2022-11-16T12:10:10.092Z,228.00
2022-11-16T12:11:10.081Z,228.00
2022-11-16T12:12:14.466Z,248.00
2022-11-16T12:13:10.056Z,284.00
2022-11-16T12:14:10.045Z,296.00
2022-11-16T12:15:10.035Z,300.00
2022-11-16T12:16:10.046Z,320.00
2022-11-16T12:17:10.025Z,336.00
2022-11-16T12:18:09.999Z,364.00
2022-11-16T12:19:09.987Z,344.00
2022-11-16T12:20:09.975Z,348.00
2022-11-16T12:21:09.964Z,312.00
2022-11-16T12:22:09.951Z,240.00
2022-11-16T12:23:09.942Z,224.00
2022-11-16T12:24:09.958Z,224.00
2022-11-16T12:25:09.917Z,232.00
2022-11-16T12:26:10.017Z,212.00
2022-11-16T12:27:09.900Z,208.00
2022-11-16T12:28:09.880Z,196.00
2022-11-16T12:29:09.873Z,172.00
2022-11-16T12:30:09.858Z,168.00
2022-11-16T12:31:09.847Z,164.00
2022-11-16T12:32:09.837Z,168.00
2022-11-16T12:33:09.829Z,160.00
2022-11-16T12:34:09.818Z,152.00
2022-11-16T12:35:09.799Z,152.00
2022-11-16T12:36:09.793Z,144.00
2022-11-16T12:37:09.777Z,148.00
2022-11-16T12:38:09.763Z,144.00
2022-11-16T12:39:09.758Z,152.00
2022-11-16T12:40:09.809Z,140.00
2022-11-16T12:41:09.857Z,140.00
2022-11-16T12:42:09.720Z,136.00
2022-11-16T12:43:11.706Z,132.00
2022-11-16T12:44:09.700Z,132.00
2022-11-16T12:45:09.690Z,136.00
2022-11-16T12:46:09.682Z,144.00
2022-11-16T12:47:11.661Z,132.00
2022-11-16T12:48:09.652Z,132.00
2022-11-16T12:49:09.637Z,132.00
2022-11-16T12:50:09.634Z,132.00
2022-11-16T12:51:09.730Z,132.00
2022-11-16T12:52:09.707Z,136.00
2022-11-16T12:53:09.593Z,124.00
2022-11-16T12:54:09.582Z,152.00
2022-11-16T12:55:27.958Z,132.00
2022-11-16T12:56:09.766Z,124.00
2022-11-16T12:57:09.549Z,128.00